sensor_id;sensor_type;location;lat;lon;timestamp;pressure;altitude;pressure_sealevel;temperature
18474;BMP180;30265;52.408;13.500;2023-09-18T00:00:28;244657.00;;;232.30
18474;BMP180;30265;52.408;13.500;2023-09-18T00:10:53;244657.00;;;232.30
18474;BMP180;30265;52.408;13.500;2023-09-18T00:21:16;244657.00;;;232.30
18474;BMP180;30265;52.408;13.500;2023-09-18T00:31:38;244657.00;;;232.30
18474;BMP180;30265;52.408;13.500;2023-09-18T00:42:01;244657.00;;;232.30
18474;BMP180;30265;52.408;13.500;2023-09-18T00:52:23;244657.00;;;232.30
18474;BMP180;30265;52.408;13.500;2023-09-18T01:02:47;244657.00;;;232.30
18474;BMP180;30265;52.408;13.500;2023-09-18T01:13:11;332525.00;;;232.30
18474;BMP180;30265;52.408;13.500;2023-09-18T01:23:37;332461.00;;;232.30
18474;BMP180;30265;52.408;13.500;2023-09-18T01:33:59;332390.00;;;232.30
18474;BMP180;30265;52.408;13.500;2023-09-18T01:44:23;332327.00;;;232.30
18474;BMP180;30265;52.408;13.500;2023-09-18T01:54:45;332129.00;;;232.30
18474;BMP180;30265;52.408;13.500;2023-09-18T02:05:08;332067.00;;;232.30
18474;BMP180;30265;52.408;13.500;2023-09-18T02:15:30;332004.00;;;232.30
18474;BMP180;30265;52.408;13.500;2023-09-18T02:25:57;331869.00;;;232.30
18474;BMP180;30265;52.408;13.500;2023-09-18T02:36:18;331940.00;;;232.30
18474;BMP180;30265;52.408;13.500;2023-09-18T02:46:43;331869.00;;;232.30
18474;BMP180;30265;52.408;13.500;2023-09-18T02:57:06;331805.00;;;232.30
18474;BMP180;30265;52.408;13.500;2023-09-18T03:07:29;331742.00;;;232.30
18474;BMP180;30265;52.408;13.500;2023-09-18T03:17:51;331678.00;;;232.30
18474;BMP180;30265;52.408;13.500;2023-09-18T03:28:14;331678.00;;;232.30
18474;BMP180;30265;52.408;13.500;2023-09-18T03:38:37;331678.00;;;232.30
18474;BMP180;30265;52.408;13.500;2023-09-18T03:49:01;331544.00;;;232.30
18474;BMP180;30265;52.408;13.500;2023-09-18T03:59:26;331544.00;;;232.30
18474;BMP180;30265;52.408;13.500;2023-09-18T04:09:50;331544.00;;;232.30
18474;BMP180;30265;52.408;13.500;2023-09-18T04:20:11;331544.00;;;232.30
18474;BMP180;30265;52.408;13.500;2023-09-18T04:30:36;331544.00;;;232.30
18474;BMP180;30265;52.408;13.500;2023-09-18T04:40:59;331544.00;;;232.30
18474;BMP180;30265;52.408;13.500;2023-09-18T04:51:22;331544.00;;;232.30
18474;BMP180;30265;52.408;13.500;2023-09-18T05:01:43;331544.00;;;232.30
18474;BMP180;30265;52.408;13.500;2023-09-18T05:12:08;331544.00;;;232.30
18474;BMP180;30265;52.408;13.500;2023-09-18T05:22:34;331544.00;;;232.30
18474;BMP180;30265;52.408;13.500;2023-09-18T05:32:57;331742.00;;;232.30
18474;BMP180;30265;52.408;13.500;2023-09-18T05:43:25;332004.00;;;232.30
18474;BMP180;30265;52.408;13.500;2023-09-18T05:53:48;332327.00;;;232.30
18474;BMP180;30265;52.408;13.500;2023-09-18T06:04:10;332723.00;;;232.30
18474;BMP180;30265;52.408;13.500;2023-09-18T06:14:36;332985.00;;;232.30
18474;BMP180;30265;52.408;13.500;2023-09-18T06:24:58;333371.00;;;232.30
18474;BMP180;30265;52.408;13.500;2023-09-18T06:35:21;334742.00;;;232.30
18474;BMP180;30265;52.408;13.500;2023-09-18T06:45:42;335993.00;;;232.30
18474;BMP180;30265;52.408;13.500;2023-09-18T06:56:05;244657.00;;;232.30
18474;BMP180;30265;52.408;13.500;2023-09-18T07:06:29;244657.00;;;232.30
18474;BMP180;30265;52.408;13.500;2023-09-18T07:16:52;342544.00;;;232.30
18474;BMP180;30265;52.408;13.500;2023-09-18T07:27:14;345375.00;;;232.30
18474;BMP180;30265;52.408;13.500;2023-09-18T07:37:37;244657.00;;;232.30
18474;BMP180;30265;52.408;13.500;2023-09-18T07:47:58;7111.00;;;232.30
18474;BMP180;30265;52.408;13.500;2023-09-18T07:58:21;244657.00;;;232.30
18474;BMP180;30265;52.408;13.500;2023-09-18T08:08:42;22112.00;;;232.30
18474;BMP180;30265;52.408;13.500;2023-09-18T08:19:07;29726.00;;;232.30
18474;BMP180;30265;52.408;13.500;2023-09-18T08:29:29;41458.00;;;232.30
18474;BMP180;30265;52.408;13.500;2023-09-18T08:39:52;62972.00;;;232.30
18474;BMP180;30265;52.408;13.500;2023-09-18T08:50:15;244657.00;;;232.30
18474;BMP180;30265;52.408;13.500;2023-09-18T09:00:38;244657.00;;;232.30
18474;BMP180;30265;52.408;13.500;2023-09-18T09:10:59;244657.00;;;232.30
18474;BMP180;30265;52.408;13.500;2023-09-18T09:21:22;244657.00;;;232.30
18474;BMP180;30265;52.408;13.500;2023-09-18T09:31:44;98859.00;;;232.30
18474;BMP180;30265;52.408;13.500;2023-09-18T09:42:08;244657.00;;;232.30
18474;BMP180;30265;52.408;13.500;2023-09-18T09:52:33;244657.00;;;232.30
18474;BMP180;30265;52.408;13.500;2023-09-18T10:02:58;244657.00;;;232.30
18474;BMP180;30265;52.408;13.500;2023-09-18T10:13:27;244657.00;;;232.30
18474;BMP180;30265;52.408;13.500;2023-09-18T10:23:59;114794.00;;;232.30
18474;BMP180;30265;52.408;13.500;2023-09-18T10:34:29;112358.00;;;232.30
18474;BMP180;30265;52.408;13.500;2023-09-18T10:44:55;182585.00;;;-50.10
18474;BMP180;30265;52.408;13.500;2023-09-18T10:55:16;244657.00;;;232.30
18474;BMP180;30265;52.408;13.500;2023-09-18T11:05:40;244657.00;;;232.30
18474;BMP180;30265;52.408;13.500;2023-09-18T11:16:12;244657.00;;;232.30
18474;BMP180;30265;52.408;13.500;2023-09-18T11:26:37;244657.00;;;232.30
18474;BMP180;30265;52.408;13.500;2023-09-18T11:37:01;86343.00;;;232.30
18474;BMP180;30265;52.408;13.500;2023-09-18T11:47:27;244657.00;;;232.30
18474;BMP180;30265;52.408;13.500;2023-09-18T11:57:50;244657.00;;;232.30
18474;BMP180;30265;52.408;13.500;2023-09-18T12:08:18;244657.00;;;232.30
18474;BMP180;30265;52.408;13.500;2023-09-18T12:18:45;244657.00;;;232.30
18474;BMP180;30265;52.408;13.500;2023-09-18T12:29:09;244657.00;;;232.30
18474;BMP180;30265;52.408;13.500;2023-09-18T12:39:32;244657.00;;;232.30
18474;BMP180;30265;52.408;13.500;2023-09-18T12:50:02;244657.00;;;232.30
18474;BMP180;30265;52.408;13.500;2023-09-18T13:00:24;244657.00;;;232.30
18474;BMP180;30265;52.408;13.500;2023-09-18T13:10:48;244657.00;;;232.30
18474;BMP180;30265;52.408;13.500;2023-09-18T13:21:11;88344.00;;;232.30
18474;BMP180;30265;52.408;13.500;2023-09-18T13:31:35;82836.00;;;232.30
18474;BMP180;30265;52.408;13.500;2023-09-18T13:41:58;66407.00;;;232.30
18474;BMP180;30265;52.408;13.500;2023-09-18T13:52:21;54175.00;;;232.30
18474;BMP180;30265;52.408;13.500;2023-09-18T14:02:42;51394.00;;;232.30
18474;BMP180;30265;52.408;13.500;2023-09-18T14:13:06;41934.00;;;232.30
18474;BMP180;30265;52.408;13.500;2023-09-18T14:23:28;61114.00;;;232.30
18474;BMP180;30265;52.408;13.500;2023-09-18T14:33:51;62540.00;;;232.30
18474;BMP180;30265;52.408;13.500;2023-09-18T14:44:13;54793.00;;;232.30
18474;BMP180;30265;52.408;13.500;2023-09-18T14:54:37;66907.00;;;232.30
18474;BMP180;30265;52.408;13.500;2023-09-18T15:05:01;71523.00;;;232.30
18474;BMP180;30265;52.408;13.500;2023-09-18T15:15:28;79438.00;;;232.30
18474;BMP180;30265;52.408;13.500;2023-09-18T15:25:50;77948.00;;;232.30
18474;BMP180;30265;52.408;13.500;2023-09-18T15:36:15;76953.00;;;232.30
18474;BMP180;30265;52.408;13.500;2023-09-18T15:46:36;68555.00;;;232.30
18474;BMP180;30265;52.408;13.500;2023-09-18T15:57:18;57781.00;;;232.30
18474;BMP180;30265;52.408;13.500;2023-09-18T16:07:41;47311.00;;;232.30
18474;BMP180;30265;52.408;13.500;2023-09-18T16:18:06;34734.00;;;232.30
18474;BMP180;30265;52.408;13.500;2023-09-18T16:28:28;11680.00;;;232.30
18474;BMP180;30265;52.408;13.500;2023-09-18T16:38:51;345375.00;;;232.30
18474;BMP180;30265;52.408;13.500;2023-09-18T16:49:13;340693.00;;;232.30
18474;BMP180;30265;52.408;13.500;2023-09-18T16:59:43;338093.00;;;232.30
18474;BMP180;30265;52.408;13.500;2023-09-18T17:10:06;334940.00;;;232.30
18474;BMP180;30265;52.408;13.500;2023-09-18T17:20:29;333697.00;;;232.30
18474;BMP180;30265;52.408;13.500;2023-09-18T17:30:51;333371.00;;;232.30
18474;BMP180;30265;52.408;13.500;2023-09-18T17:41:16;333435.00;;;232.30
18474;BMP180;30265;52.408;13.500;2023-09-18T17:51:37;333048.00;;;232.30
18474;BMP180;30265;52.408;13.500;2023-09-18T18:02:00;333506.00;;;232.30
18474;BMP180;30265;52.408;13.500;2023-09-18T18:12:24;333697.00;;;232.30
18474;BMP180;30265;52.408;13.500;2023-09-18T18:22:47;334155.00;;;232.30
18474;BMP180;30265;52.408;13.500;2023-09-18T18:33:08;334289.00;;;232.30
18474;BMP180;30265;52.408;13.500;2023-09-18T18:43:32;334614.00;;;232.30
18474;BMP180;30265;52.408;13.500;2023-09-18T18:53:54;334678.00;;;232.30
18474;BMP180;30265;52.408;13.500;2023-09-18T19:04:19;334742.00;;;232.30
18474;BMP180;30265;52.408;13.500;2023-09-18T19:14:41;334480.00;;;232.30
18474;BMP180;30265;52.408;13.500;2023-09-18T19:25:04;334742.00;;;232.30
18474;BMP180;30265;52.408;13.500;2023-09-18T19:35:26;334218.00;;;232.30
18474;BMP180;30265;52.408;13.500;2023-09-18T19:45:49;333697.00;;;232.30
18474;BMP180;30265;52.408;13.500;2023-09-18T19:56:11;332787.00;;;232.30
18474;BMP180;30265;52.408;13.500;2023-09-18T20:06:34;332129.00;;;232.30
18474;BMP180;30265;52.408;13.500;2023-09-18T20:16:55;331805.00;;;232.30
18474;BMP180;30265;52.408;13.500;2023-09-18T20:27:18;331678.00;;;232.30
18474;BMP180;30265;52.408;13.500;2023-09-18T20:37:39;331544.00;;;232.30
18474;BMP180;30265;52.408;13.500;2023-09-18T20:48:11;331544.00;;;232.30
18474;BMP180;30265;52.408;13.500;2023-09-18T20:58:33;331544.00;;;232.30
18474;BMP180;30265;52.408;13.500;2023-09-18T21:08:58;331544.00;;;232.30
18474;BMP180;30265;52.408;13.500;2023-09-18T21:19:21;331544.00;;;232.30
18474;BMP180;30265;52.408;13.500;2023-09-18T21:29:44;331544.00;;;232.30
18474;BMP180;30265;52.408;13.500;2023-09-18T21:40:08;331544.00;;;232.30
18474;BMP180;30265;52.408;13.500;2023-09-18T21:50:31;331544.00;;;232.30
18474;BMP180;30265;52.408;13.500;2023-09-18T22:00:55;331544.00;;;232.30
18474;BMP180;30265;52.408;13.500;2023-09-18T22:11:18;331544.00;;;232.30
18474;BMP180;30265;52.408;13.500;2023-09-18T22:21:40;331544.00;;;232.30
18474;BMP180;30265;52.408;13.500;2023-09-18T22:32:03;331544.00;;;232.30
18474;BMP180;30265;52.408;13.500;2023-09-18T23:03:12;331544.00;;;232.30
18474;BMP180;30265;52.408;13.500;2023-09-18T23:13:33;331544.00;;;232.30
18474;BMP180;30265;52.408;13.500;2023-09-18T23:23:58;331544.00;;;232.30
18474;BMP180;30265;52.408;13.500;2023-09-18T23:34:23;331544.00;;;232.30
18474;BMP180;30265;52.408;13.500;2023-09-18T23:44:46;331544.00;;;232.30
18474;BMP180;30265;52.408;13.500;2023-09-18T23:55:09;331544.00;;;232.30
